Latest Weather Observations for Mount Lofty

IDS60901

Issued at 10:35 pm CST Wednesday 30 July 2014 (issued every 10 minutes, with the page automatically refreshed every 10 minutes)

About weather observations | Map of Adelaide area stations | Latest observations for Adelaide area | Other Formats
Station Details ID: 023842 Name: MOUNT LOFTY Lat: -34.98 Lon: 138.71 Height: 685.0 m
Data from the previous 72 hours. | See also: Recent months at Mount Lofty
Date/Time
CST
Tmp

°C
App
Tmp
°C
Dew
Point
°C
Rel
Hum
%
Delta-T

°C
Wind Press
QNH
hPa
Press
MSL
hPa
Rain
since
9 am
mm
Dir
 
Spd
km/h
Gust
km/h
Spd
kts
Gust
kts
30/10:30pm 8.6 2.0 8.6 100 0.0 WNW 33 50 18 27 - - 0.0
30/10:00pm 8.8 2.3 8.8 100 0.0 WNW 33 54 18 29 - - 0.0
30/09:31pm 9.0 3.1 9.0 100 0.0 WNW 30 48 16 26 - - 0.0
30/09:30pm 9.0 2.7 9.0 100 0.0 WNW 32 48 17 26 - - 0.0
30/09:00pm 9.2 3.0 9.2 100 0.0 WNW 32 52 17 28 - - 0.0
30/08:38pm 9.1 3.2 9.1 100 0.0 WNW 30 48 16 26 - - 0.0
30/08:30pm 9.0 3.1 9.0 100 0.0 WNW 30 46 16 25 - - 0.0
30/08:00pm 9.1 2.8 9.1 100 0.0 WNW 32 50 17 27 - - 0.0
30/07:30pm 9.3 3.5 9.3 100 0.0 WNW 30 54 16 29 - - 0.0
30/07:00pm 9.4 3.6 9.4 100 0.0 WNW 30 48 16 26 - - 0.0
30/06:32pm 9.6 4.2 9.6 100 0.0 WNW 28 48 15 26 - - 0.0
30/06:30pm 9.6 3.8 9.6 100 0.0 WNW 30 48 16 26 - - 0.0
30/06:02pm 9.6 3.8 9.6 100 0.0 WNW 30 50 16 27 - - 0.0
30/06:00pm 9.6 4.2 9.6 100 0.0 WNW 28 46 15 25 - - 0.0
30/05:30pm 9.7 4.0 9.7 100 0.0 WNW 30 54 16 29 - - 0.0
30/05:00pm 9.7 4.0 9.7 100 0.0 WNW 30 50 16 27 - - 0.0
30/04:37pm 9.6 4.2 9.6 100 0.0 WNW 28 46 15 25 - - 0.0
30/04:30pm 9.6 3.8 9.6 100 0.0 WNW 30 48 16 26 - - 0.0
30/04:02pm 9.6 3.8 9.6 100 0.0 WNW 30 50 16 27 - - 0.0
30/04:00pm 9.6 3.5 9.6 100 0.0 WNW 32 50 17 27 - - 0.0
30/03:35pm 9.7 4.0 9.7 100 0.0 WNW 30 50 16 27 - - 0.0
30/03:30pm 9.8 4.1 9.8 100 0.0 WNW 30 48 16 26 - - 0.0
30/03:00pm 9.9 4.6 9.9 100 0.0 WNW 28 56 15 30 - - 0.0
30/02:30pm 9.8 4.1 9.8 100 0.0 WNW 30 54 16 29 - - 0.0
30/02:00pm 10.0 4.7 10.0 100 0.0 WNW 28 48 15 26 - - 0.0
30/01:33pm 10.0 4.7 10.0 100 0.0 WNW 28 48 15 26 - - 0.0
30/01:30pm 10.0 4.7 10.0 100 0.0 WNW 28 44 15 24 - - 0.0
30/01:00pm 9.9 4.6 9.9 100 0.0 WNW 28 48 15 26 - - 0.0
30/12:30pm 10.0 4.7 10.0 100 0.0 WNW 28 50 15 27 - - 0.0
30/12:00pm 9.8 4.5 9.8 100 0.0 WNW 28 50 15 27 - - 0.0
30/11:30am 9.8 4.5 9.8 100 0.0 WNW 28 48 15 26 - - 0.0
30/11:28am 9.8 4.5 9.8 100 0.0 WNW 28 48 15 26 - - 0.0
30/11:00am 9.6 4.2 9.6 100 0.0 WNW 28 46 15 25 - - 0.0
30/10:36am 9.3 3.8 9.3 100 0.0 WNW 28 48 15 26 - - 0.0
30/10:30am 9.2 4.1 9.2 100 0.0 WNW 26 48 14 26 - - 0.0
30/10:00am 9.1 4.0 9.1 100 0.0 WNW 26 41 14 22 - - 0.0
30/09:44am 9.2 3.7 9.2 100 0.0 WNW 28 54 15 29 - - 0.0
30/09:30am 9.3 4.2 9.3 100 0.0 WNW 26 46 14 25 - - 0.0
30/09:11am 9.3 3.8 9.3 100 0.0 WNW 28 50 15 27 - - 0.0
30/09:00am 9.3 4.2 9.3 100 0.0 WNW 26 44 14 24 - - 8.2
30/08:30am 9.1 4.4 9.1 100 0.0 WNW 24 48 13 26 - - 8.2
30/08:02am 9.0 3.5 9.0 100 0.0 WNW 28 52 15 28 - - 8.0
30/08:00am 9.0 3.8 9.0 100 0.0 WNW 26 44 14 24 - - 8.0
30/07:30am 9.0 4.2 9.0 100 0.0 WNW 24 43 13 23 - - 8.0
30/07:00am 8.9 4.5 8.9 100 0.0 WNW 22 44 12 24 - - 7.6
30/06:30am 8.8 4.0 8.8 100 0.0 WNW 24 39 13 21 - - 7.6
30/06:00am 8.9 3.7 8.9 100 0.0 WNW 26 43 14 23 - - 7.6
30/05:30am 8.9 4.1 8.9 100 0.0 WNW 24 37 13 20 - - 7.6
30/05:00am 9.0 4.6 9.0 100 0.0 WNW 22 41 12 22 - - 7.6
30/04:30am 9.2 4.5 9.2 100 0.0 WNW 24 46 13 25 - - 7.6
30/04:19am 9.2 3.7 9.2 100 0.0 WNW 28 48 15 26 - - 7.6
30/04:00am 9.3 4.6 9.3 100 0.0 WNW 24 39 13 21 - - 7.6
30/03:30am 9.3 4.6 9.3 100 0.0 WNW 24 41 13 22 - - 7.6
30/03:00am 9.3 5.0 9.3 100 0.0 WNW 22 39 12 21 - - 7.6
30/02:30am 9.4 5.1 9.4 100 0.0 WNW 22 41 12 22 - - 7.6
30/02:00am 9.6 5.4 9.6 100 0.0 WNW 22 39 12 21 - - 7.4
30/01:30am 9.6 5.4 9.6 100 0.0 WNW 22 39 12 21 - - 7.4
30/01:00am 9.5 5.2 9.5 100 0.0 WNW 22 41 12 22 - - 7.4
30/12:30am 9.7 6.1 9.7 100 0.0 WNW 19 37 10 20 - - 7.4
30/12:00am 9.8 5.6 9.8 100 0.0 WNW 22 41 12 22 - - 7.4
 
Date/Time
CST
Tmp

°C
App
Tmp
°C
Dew
Point
°C
Rel
Hum
%
Delta-T

°C
Wind Press
QNH
hPa
Press
MSL
hPa
Rain
since
9 am
mm
Dir
 
Spd
km/h
Gust
km/h
Spd
kts
Gust
kts
29/11:30pm 9.8 5.2 9.8 100 0.0 WNW 24 43 13 23 - - 7.4
29/11:00pm 9.7 5.1 9.7 100 0.0 WNW 24 44 13 24 - - 7.4
29/10:30pm 9.6 5.4 9.6 100 0.0 WNW 22 39 12 21 - - 7.4
29/10:00pm 9.8 4.9 9.8 100 0.0 WNW 26 48 14 26 - - 7.4
29/09:30pm 9.9 5.4 9.9 100 0.0 WNW 24 44 13 24 - - 7.2
29/09:00pm 9.7 5.5 9.7 100 0.0 W 22 41 12 22 - - 7.2
29/08:30pm 9.8 5.6 9.8 100 0.0 W 22 39 12 21 - - 7.0
29/08:00pm 9.9 5.0 9.9 100 0.0 WNW 26 52 14 28 - - 6.4
29/07:30pm 10.0 5.5 10.0 100 0.0 W 24 44 13 24 - - 6.2
29/07:00pm 9.7 5.1 9.7 100 0.0 W 24 56 13 30 - - 6.2
29/06:32pm 10.1 4.9 10.1 100 0.0 W 28 54 15 29 - - 5.2
29/06:30pm 10.1 5.2 10.1 100 0.0 W 26 54 14 29 - - 5.2
29/06:15pm 10.1 4.9 10.1 100 0.0 WNW 28 50 15 27 - - 4.8
29/06:00pm 10.2 5.4 10.2 100 0.0 WNW 26 46 14 25 - - 4.8
29/05:30pm 10.2 5.7 10.2 100 0.0 WNW 24 43 13 23 - - 4.6
29/05:18pm 10.2 5.0 10.2 100 0.0 WNW 28 56 15 30 - - 4.6
29/05:00pm 10.2 5.4 10.2 100 0.0 WNW 26 48 14 26 - - 4.6
29/04:58pm 10.2 5.0 10.2 100 0.0 WNW 28 48 15 26 - - 4.6
29/04:30pm 10.1 5.6 10.1 100 0.0 W 24 43 13 23 - - 4.4
29/04:00pm 10.2 5.0 10.2 100 0.0 WNW 28 52 15 28 - - 2.2
29/03:30pm 10.2 5.4 10.2 100 0.0 WNW 26 43 14 23 - - 0.8
29/03:01pm 10.1 4.9 10.1 100 0.0 WNW 28 56 15 30 - - 0.0
29/03:00pm 10.1 4.9 10.1 100 0.0 WNW 28 46 15 25 - - 0.0
29/02:30pm 9.9 4.6 9.9 100 0.0 WNW 28 52 15 28 - - 0.0
29/02:21pm 9.9 4.2 9.9 100 0.0 WNW 30 52 16 28 - - 0.0
29/02:00pm 9.8 4.9 9.8 100 0.0 WNW 26 46 14 25 - - 0.0
29/01:39pm 9.9 4.6 9.9 100 0.0 WNW 28 50 15 27 - - 0.0
29/01:30pm 9.9 4.6 9.9 100 0.0 WNW 28 44 15 24 - - 0.0
29/01:00pm 9.9 4.6 9.9 100 0.0 WNW 28 56 15 30 - - 0.0
29/12:30pm 9.8 3.5 9.8 100 0.0 WNW 33 57 18 31 - - 0.0
29/12:00pm 9.6 3.5 9.6 100 0.0 WNW 32 52 17 28 - - 0.0
29/11:30am 9.4 3.2 9.4 100 0.0 WNW 32 56 17 30 - - 0.0
29/11:00am 9.2 3.3 9.2 100 0.0 WNW 30 52 16 28 - - 0.0
29/10:30am 9.0 3.1 9.0 100 0.0 WNW 30 50 16 27 - - 0.0
29/10:00am 8.7 2.7 8.7 100 0.0 WNW 30 52 16 28 - - 0.0
29/09:30am 8.3 1.8 8.3 100 0.0 WNW 32 52 17 28 - - 0.0
29/09:00am 8.1 2.0 8.1 100 0.0 WNW 30 52 16 28 - - 0.2
29/08:31am 8.1 2.0 8.1 100 0.0 WNW 30 48 16 26 - - 0.2
29/08:30am 8.1 2.0 8.1 100 0.0 WNW 30 44 16 24 - - 0.2
29/08:01am 7.7 1.8 7.7 100 0.0 WNW 28 52 15 28 - - 0.2
29/08:00am 7.7 1.8 7.7 100 0.0 WNW 28 44 15 24 - - 0.2
29/07:37am 7.2 0.9 7.2 100 0.0 WNW 30 54 16 29 - - 0.0
29/07:30am 7.2 0.9 7.2 100 0.0 WNW 30 46 16 25 - - 0.0
29/07:12am 6.9 0.9 6.9 100 0.0 WNW 28 46 15 25 - - 0.0
29/07:00am 6.7 0.2 6.7 100 0.0 WNW 30 46 16 25 - - 0.0
29/06:30am 6.6 0.5 6.6 100 0.0 WNW 28 46 15 25 - - 0.0
29/06:26am 6.7 0.6 6.7 100 0.0 WNW 28 46 15 25 - - 0.0
29/06:00am 6.2 0.4 6.2 100 0.0 WNW 26 41 14 22 - - 0.0
29/05:30am 5.9 -0.7 5.9 100 0.0 WNW 30 50 16 27 - - 0.0
29/05:01am 6.2 -0.8 6.2 100 0.0 WNW 32 50 17 27 - - 0.0
29/05:00am 6.1 -1.1 6.1 100 0.0 WNW 33 52 18 28 - - 0.0
29/04:30am 6.5 0.0 6.5 100 0.0 WNW 30 50 16 27 - - 0.0
29/04:00am 7.0 1.0 7.0 100 0.0 WNW 28 48 15 26 - - 0.0
29/03:52am 6.7 0.6 6.7 100 0.0 WNW 28 48 15 26 - - 0.0
29/03:30am 6.8 1.1 6.8 100 0.0 WNW 26 43 14 23 - - 0.0
29/03:00am 6.9 1.2 6.9 100 0.0 WNW 26 41 14 22 - - 0.0
29/02:30am 6.8 1.5 6.8 100 0.0 WNW 24 37 13 20 - - 0.0
29/02:00am 6.8 1.1 6.8 100 0.0 WNW 26 39 14 21 - - 0.0
29/01:35am 6.9 0.9 6.9 100 0.0 WNW 28 48 15 26 - - 0.0
29/01:30am 7.1 0.7 7.1 100 0.0 WNW 30 44 16 24 - - 0.0
29/01:00am 7.1 0.3 7.1 100 0.0 WNW 32 52 17 28 - - 0.0
29/12:36am 7.3 0.9 6.9 97 0.2 WNW 30 48 16 26 - - 0.0
29/12:30am 7.2 0.8 6.9 98 0.1 WNW 30 46 16 25 - - 0.0
29/12:00am 7.4 1.5 7.4 100 0.0 WNW 28 46 15 25 - - 0.0
 
Date/Time
CST
Tmp

°C
App
Tmp
°C
Dew
Point
°C
Rel
Hum
%
Delta-T

°C
Wind Press
QNH
hPa
Press
MSL
hPa
Rain
since
9 am
mm
Dir
 
Spd
km/h
Gust
km/h
Spd
kts
Gust
kts
28/11:44pm 7.5 1.6 7.5 100 0.0 WNW 28 48 15 26 - - 0.0
28/11:30pm 7.6 1.3 7.6 100 0.0 WNW 30 46 16 25 - - 0.0
28/11:00pm 7.7 1.5 7.7 100 0.0 WNW 30 56 16 30 - - 0.0
28/10:30pm 7.6 1.3 7.6 100 0.0 WNW 30 52 16 28 - - 0.0
28/10:00pm 7.8 1.2 7.8 100 0.0 WNW 32 54 17 29 - - 0.0
28/09:30pm 7.7 1.1 7.7 100 0.0 WNW 32 50 17 27 - - 0.0
28/09:02pm 8.0 1.8 8.0 100 0.0 WNW 30 50 16 27 - - 0.0
28/09:00pm 8.1 1.6 8.1 100 0.0 WNW 32 50 17 27 - - 0.0
28/08:40pm 8.2 1.7 8.2 100 0.0 WNW 32 52 17 28 - - 0.0
28/08:30pm 8.2 2.1 8.2 100 0.0 WNW 30 48 16 26 - - 0.0
28/08:01pm 8.3 2.6 8.3 100 0.0 WNW 28 48 15 26 - - 0.0
28/08:00pm 8.3 2.2 8.3 100 0.0 WNW 30 48 16 26 - - 0.0
28/07:47pm 8.4 2.7 8.4 100 0.0 WNW 28 48 15 26 - - 0.0
28/07:30pm 8.5 2.8 8.5 100 0.0 WNW 28 44 15 24 - - 0.0
28/07:08pm 8.7 3.1 8.7 100 0.0 WNW 28 48 15 26 - - 0.0
28/07:00pm 8.7 3.1 8.7 100 0.0 WNW 28 44 15 24 - - 0.0
28/06:35pm 8.8 3.2 8.8 100 0.0 WNW 28 46 15 25 - - 0.0
28/06:30pm 8.7 3.1 8.7 100 0.0 WNW 28 44 15 24 - - 0.0
28/06:00pm 8.8 3.6 8.8 100 0.0 WNW 26 46 14 25 - - 0.0
28/05:30pm 9.1 3.6 9.1 100 0.0 WNW 28 50 15 27 - - 0.0
28/05:11pm 9.1 3.6 9.1 100 0.0 WNW 28 54 15 29 - - 0.0
28/05:00pm 9.0 3.5 9.0 100 0.0 WNW 28 44 15 24 - - 0.0
28/04:51pm 8.9 3.3 8.9 100 0.0 WNW 28 48 15 26 - - 0.0
28/04:30pm 9.1 4.0 9.1 100 0.0 WNW 26 44 14 24 - - 0.0
28/04:11pm 9.4 4.0 9.4 100 0.0 WNW 28 48 15 26 - - 0.0
28/04:00pm 9.3 3.8 9.3 100 0.0 WNW 28 39 15 21 - - 0.0
28/03:30pm 9.6 5.0 9.6 100 0.0 WNW 24 41 13 22 - - 0.0
28/03:00pm 9.8 5.2 9.8 100 0.0 WNW 24 43 13 23 - - 0.0
28/02:30pm 9.5 5.6 9.5 100 0.0 WNW 20 35 11 19 - - 0.0
28/02:00pm 9.2 5.2 9.2 100 0.0 WNW 20 37 11 20 - - 0.0
28/01:30pm 9.1 4.7 9.1 100 0.0 WNW 22 33 12 18 - - 0.0
28/01:00pm 9.0 5.2 9.0 100 0.0 WNW 19 33 10 18 - - 0.0
28/12:30pm 8.7 4.8 8.7 100 0.0 WNW 19 32 10 17 - - 0.0
28/12:00pm 8.5 4.6 8.5 100 0.0 WNW 19 32 10 17 - - 0.0
28/11:30am 8.0 3.9 8.0 100 0.0 WNW 19 32 10 17 - - 0.0
28/11:00am 7.8 3.7 7.8 100 0.0 WNW 19 26 10 14 - - 0.0
28/10:30am 7.5 3.3 7.5 100 0.0 WNW 19 32 10 17 - - 0.0
28/10:00am 7.4 3.0 7.4 100 0.0 WNW 20 32 11 17 - - 0.0
28/09:30am 7.0 2.5 7.0 100 0.0 WNW 20 35 11 19 - - 0.0
28/09:00am 6.9 2.4 6.9 100 0.0 WNW 20 32 11 17 - - 0.0
28/08:30am 7.0 2.5 7.0 100 0.0 WNW 20 32 11 17 - - 0.0
28/08:00am 6.7 2.7 6.7 100 0.0 WNW 17 30 9 16 - - 0.0
28/07:30am 6.5 2.1 6.5 100 0.0 WNW 19 28 10 15 - - 0.0
28/07:00am 6.5 2.8 6.5 100 0.0 WNW 15 26 8 14 - - 0.0
28/06:30am 6.7 2.7 6.7 100 0.0 WNW 17 28 9 15 - - 0.0
28/06:00am 6.8 2.8 6.7 99 0.0 WNW 17 28 9 15 - - 0.0
28/05:30am 6.9 2.7 5.7 92 0.6 WNW 17 30 9 16 - - 0.0
28/05:00am 7.4 3.2 5.9 90 0.7 WNW 17 28 9 15 - - 0.0
28/04:30am 7.4 2.8 5.5 88 0.9 WNW 19 30 10 16 - - 0.0
28/04:00am 7.0 2.0 4.7 85 1.0 WNW 20 30 11 16 - - 0.0
28/03:30am 7.1 2.2 4.1 81 1.3 WNW 19 30 10 16 - - 0.0
28/03:00am 7.5 2.3 3.6 76 1.7 WNW 20 32 11 17 - - 0.0
28/02:30am 8.3 2.7 3.2 70 2.3 WNW 22 37 12 20 - - 0.0
28/02:00am 8.8 3.1 3.0 67 2.6 WNW 22 37 12 20 - - 0.0
28/01:30am 9.2 3.1 3.0 65 2.8 WNW 24 41 13 22 - - 0.0
28/01:00am 9.6 3.5 2.9 63 3.0 WNW 24 37 13 20 - - 0.0
28/12:30am 10.3 3.8 2.9 60 3.3 WNW 26 39 14 21 - - 0.0
28/12:11am 10.4 3.6 3.0 60 3.3 WNW 28 48 15 26 - - 0.0
28/12:00am 10.5 4.1 3.1 60 3.3 WNW 26 41 14 22 - - 0.0
 
Date/Time
CST
Tmp

°C
App
Tmp
°C
Dew
Point
°C
Rel
Hum
%
Delta-T

°C
Wind Press
QNH
hPa
Press
MSL
hPa
Rain
since
9 am
mm
Dir
 
Spd
km/h
Gust
km/h
Spd
kts
Gust
kts
27/11:30pm 10.5 4.1 3.1 60 3.3 WNW 26 46 14 25 - - 0.0
27/11:00pm 10.6 4.2 3.2 60 3.4 WNW 26 43 14 23 - - 0.0

Latest Capital City Observations: Canberra | Sydney | Melbourne | Brisbane | Adelaide | Perth | Hobart | Darwin

Other Formats:

Comma delimited format used in spreadsheet applications
http://www.bom.gov.au/fwo/IDS60901/IDS60901.95678.axf

JavaScript Object Notation format (JSON) in row-major order
http://www.bom.gov.au/fwo/IDS60901/IDS60901.95678.json